Time;durP1;ratioP1;P1;durP2;ratioP2;P2;SDS_P1;SDS_P2;PMS_P1;PMS_P2;Temp;Humidity;BMP_temperature;BMP_pressure;BME280_temperature;BME280_humidity;BME280_pressure;Samples;Min_cycle;Max_cycle;Signal;HPM_P1;HPM_P2
2024/01/03 00:00:26;;;;;;;44.27;19.03;;;3.90;99.90;;;;;;4404953;28;660177;-76
2024/01/03 00:03:13;;;;;;;24.17;12.50;;;3.80;99.90;;;;;;4400570;28;659633;-76
2024/01/03 00:06:01;;;;;;;23.73;11.23;;;3.90;99.90;;;;;;4418320;28;660309;-76
2024/01/03 00:08:50;;;;;;;53.03;23.02;;;3.80;99.90;;;;;;4406579;28;660267;-76
2024/01/03 00:11:37;;;;;;;27.63;13.53;;;3.90;99.90;;;;;;4417707;28;660182;-76
2024/01/03 00:14:27;;;;;;;28.73;14.80;;;3.90;99.90;;;;;;4420212;28;660379;-76
2024/01/03 00:17:14;;;;;;;31.17;13.87;;;3.80;99.90;;;;;;4401426;28;660025;-76
2024/01/03 00:20:01;;;;;;;33.07;15.27;;;3.90;99.90;;;;;;4431175;28;659109;-76
2024/01/03 00:22:48;;;;;;;46.60;19.50;;;3.80;99.90;;;;;;4410781;28;659930;-76
2024/01/03 00:25:37;;;;;;;30.33;15.00;;;3.80;99.90;;;;;;4430712;28;660049;-75
2024/01/03 00:28:24;;;;;;;25.30;12.70;;;3.90;99.90;;;;;;4402889;28;659992;-76
2024/01/03 00:31:12;;;;;;;16.77;9.10;;;3.80;99.90;;;;;;4418228;28;659315;-76
2024/01/03 00:33:59;;;;;;;17.80;9.50;;;3.90;99.90;;;;;;4405140;28;658606;-76
2024/01/03 00:36:47;;;;;;;11.80;7.07;;;3.90;99.90;;;;;;4428069;28;658941;-76
2024/01/03 00:39:34;;;;;;;13.43;7.77;;;3.90;99.90;;;;;;4409634;28;659418;-76
2024/01/03 00:42:23;;;;;;;15.40;7.83;;;3.90;99.90;;;;;;4431305;28;658935;-75
2024/01/03 00:45:10;;;;;;;9.63;5.37;;;3.90;99.90;;;;;;4391647;28;659522;-76
2024/01/03 00:47:57;;;;;;;6.25;4.35;;;3.90;99.90;;;;;;4399232;28;657711;-76
2024/01/03 00:50:45;;;;;;;10.93;5.60;;;3.90;99.90;;;;;;4425724;28;658520;-76
2024/01/03 00:53:32;;;;;;;12.43;5.47;;;3.90;99.90;;;;;;4427762;28;659149;-76
2024/01/03 00:56:19;;;;;;;69.17;20.53;;;4.00;99.90;;;;;;4411397;28;660038;-76
2024/01/03 00:59:08;;;;;;;12.53;5.93;;;4.00;99.90;;;;;;4420736;28;659291;-76
2024/01/03 01:01:55;;;;;;;51.23;14.63;;;4.00;99.90;;;;;;4398819;28;658614;-76
2024/01/03 01:04:42;;;;;;;9.57;4.87;;;4.00;99.90;;;;;;4398488;28;659594;-76
2024/01/03 01:07:30;;;;;;;33.03;11.77;;;4.10;99.90;;;;;;4433615;28;657956;-75
2024/01/03 01:10:17;;;;;;;52.20;15.10;;;4.00;99.90;;;;;;4423380;28;659590;-76
2024/01/03 01:13:04;;;;;;;14.43;5.00;;;4.00;99.90;;;;;;4408086;28;660839;-76
2024/01/03 01:15:53;;;;;;;23.77;8.67;;;4.10;99.90;;;;;;4432643;28;658586;-76
2024/01/03 01:18:40;;;;;;;61.03;20.00;;;4.00;99.90;;;;;;4393756;28;660168;-76
2024/01/03 01:21:27;;;;;;;11.93;5.40;;;4.10;99.90;;;;;;4411476;28;659788;-76
2024/01/03 01:24:14;;;;;;;49.10;16.07;;;4.10;99.90;;;;;;4419835;28;659264;-76
2024/01/03 01:27:02;;;;;;;28.03;11.43;;;4.10;99.90;;;;;;4431040;28;659896;-76
2024/01/03 01:29:49;;;;;;;12.50;5.77;;;4.10;99.90;;;;;;4409201;28;660209;-76
2024/01/03 01:32:38;;;;;;;10.77;5.30;;;4.10;99.90;;;;;;4420561;28;658706;-75
2024/01/03 01:35:25;;;;;;;7.90;3.87;;;4.10;99.90;;;;;;4390589;28;659822;-75
2024/01/03 01:38:12;;;;;;;11.60;5.93;;;4.10;99.90;;;;;;4420413;28;657677;-76
2024/01/03 01:41:00;;;;;;;12.40;6.17;;;4.10;99.90;;;;;;4436324;28;659998;-76
2024/01/03 01:43:47;;;;;;;9.13;4.73;;;4.10;99.90;;;;;;4418303;28;658737;-76
2024/01/03 01:46:36;;;;;;;5.53;3.43;;;4.10;99.90;;;;;;4399445;28;657527;-76
2024/01/03 01:49:25;;;;;;;3.83;2.30;;;4.20;99.90;;;;;;4410479;28;657793;-75
2024/01/03 01:52:12;;;;;;;7.43;4.50;;;4.20;99.90;;;;;;4399792;28;657787;-76
2024/01/03 01:55:00;;;;;;;15.63;7.90;;;4.20;99.90;;;;;;4418027;28;657871;-76
2024/01/03 01:57:47;;;;;;;12.03;5.87;;;4.20;99.90;;;;;;4428612;28;658650;-76
2024/01/03 02:00:34;;;;;;;16.13;6.80;;;4.10;99.90;;;;;;4401582;28;659733;-76
2024/01/03 02:03:21;;;;;;;13.90;7.00;;;4.10;99.90;;;;;;4422381;28;658413;-76
2024/01/03 02:06:10;;;;;;;12.77;6.73;;;4.20;99.90;;;;;;4406605;28;659202;-76
2024/01/03 02:08:57;;;;;;;12.00;5.47;;;4.10;99.90;;;;;;4421780;28;658585;-76
2024/01/03 02:11:45;;;;;;;5.27;3.03;;;4.20;99.90;;;;;;4434979;28;659066;-76
2024/01/03 02:14:32;;;;;;;6.15;3.30;;;4.20;99.90;;;;;;4414459;28;657943;-75
2024/01/03 02:17:20;;;;;;;4.67;2.80;;;4.30;99.90;;;;;;4423436;28;658317;-76
2024/01/03 02:20:08;;;;;;;3.10;2.00;;;4.30;99.90;;;;;;4421383;28;657413;-76
2024/01/03 02:22:57;;;;;;;3.90;2.30;;;4.30;99.90;;;;;;4425671;28;657904;-75
2024/01/03 02:25:45;;;;;;;2.07;1.60;;;4.40;99.90;;;;;;4393216;28;658022;-75
2024/01/03 02:28:32;;;;;;;5.60;1.73;;;4.40;99.90;;;;;;4404034;28;657468;-76
2024/01/03 02:31:20;;;;;;;3.70;1.80;;;4.50;99.90;;;;;;4440536;28;657960;-76
2024/01/03 02:34:07;;;;;;;4.17;1.70;;;4.40;99.90;;;;;;4405919;28;657368;-75
2024/01/03 02:36:55;;;;;;;2.10;1.50;;;4.50;99.90;;;;;;4432300;28;657855;-76
2024/01/03 02:39:43;;;;;;;2.90;1.90;;;4.60;99.90;;;;;;4427932;28;657299;-75
2024/01/03 02:42:30;;;;;;;2.20;1.70;;;4.50;99.90;;;;;;4404430;28;658497;-76
2024/01/03 02:45:17;;;;;;;3.25;1.83;;;4.50;99.90;;;;;;4407460;28;657825;-76
2024/01/03 02:48:06;;;;;;;4.00;1.70;;;4.60;99.90;;;;;;4428637;28;658071;-76
2024/01/03 02:50:53;;;;;;;4.23;1.63;;;4.70;99.90;;;;;;4391565;28;658199;-76
2024/01/03 02:53:40;;;;;;;2.10;1.50;;;4.70;99.90;;;;;;4426276;28;657737;-76
2024/01/03 02:56:29;;;;;;;3.53;1.90;;;4.70;99.90;;;;;;4407427;28;656996;-75
2024/01/03 02:59:16;;;;;;;0.93;0.60;;;4.70;99.90;;;;;;4427155;28;657435;-75
2024/01/03 03:02:03;;;;;;;3.13;1.47;;;4.70;99.90;;;;;;4395992;28;657652;-75
2024/01/03 03:04:50;;;;;;;3.50;1.70;;;4.70;99.90;;;;;;4423745;28;657831;-75
2024/01/03 03:07:38;;;;;;;6.17;2.53;;;4.70;99.90;;;;;;4408544;28;657779;-75
2024/01/03 03:10:25;;;;;;;3.70;1.67;;;4.80;99.90;;;;;;4422987;28;657875;-75
2024/01/03 03:13:14;;;;;;;3.83;2.70;;;4.70;99.90;;;;;;4395489;28;657694;-76
2024/01/03 03:16:02;;;;;;;1.23;0.70;;;4.70;99.90;;;;;;4430350;28;657215;-76
2024/01/03 03:18:49;;;;;;;4.10;2.40;;;4.80;99.90;;;;;;4402574;28;657854;-76
2024/01/03 03:21:36;;;;;;;4.63;2.63;;;4.80;99.90;;;;;;4433019;28;657171;-75
2024/01/03 03:24:23;;;;;;;6.40;4.30;;;4.90;99.90;;;;;;4409186;28;657333;-75
2024/01/03 03:27:11;;;;;;;5.50;3.70;;;4.90;99.90;;;;;;4433202;28;657833;-75
2024/01/03 03:30:01;;;;;;;5.40;3.70;;;4.90;99.90;;;;;;4413287;28;657880;-75
2024/01/03 03:32:48;;;;;;;7.53;4.20;;;4.90;99.90;;;;;;4408687;28;657856;-75
2024/01/03 03:35:35;;;;;;;6.07;3.50;;;4.90;99.90;;;;;;4416402;28;658855;-75
2024/01/03 03:38:23;;;;;;;5.70;3.70;;;5.00;99.90;;;;;;4412858;28;657937;-74
2024/01/03 03:41:11;;;;;;;5.67;3.40;;;5.00;99.90;;;;;;4431079;28;658182;-75
2024/01/03 03:43:58;;;;;;;5.27;2.90;;;5.00;99.90;;;;;;4414721;28;657405;-75
2024/01/03 03:46:47;;;;;;;6.30;3.50;;;5.00;99.90;;;;;;4428207;28;657958;-75
2024/01/03 03:49:34;;;;;;;7.83;2.50;;;5.10;99.90;;;;;;4412789;28;658178;-75
2024/01/03 03:52:21;;;;;;;2.80;1.13;;;5.20;99.90;;;;;;4422617;28;657496;-74
2024/01/03 03:55:09;;;;;;;4.40;2.25;;;5.20;99.90;;;;;;4405138;28;657653;-75
2024/01/03 03:57:56;;;;;;;3.80;2.63;;;5.30;99.90;;;;;;4422039;28;658064;-75
2024/01/03 04:00:43;;;;;;;5.50;3.27;;;5.30;99.90;;;;;;4401139;28;658285;-75
2024/01/03 04:03:32;;;;;;;5.03;3.07;;;5.30;99.90;;;;;;4432857;28;658243;-75
2024/01/03 04:06:19;;;;;;;8.23;3.30;;;5.30;99.90;;;;;;4399923;28;658348;-75
2024/01/03 04:09:06;;;;;;;7.53;2.67;;;5.30;99.90;;;;;;4433871;28;657392;-75
2024/01/03 04:11:53;;;;;;;6.20;3.10;;;5.30;99.90;;;;;;4404007;28;657622;-75
2024/01/03 04:14:40;;;;;;;7.43;3.13;;;5.30;99.90;;;;;;4425554;28;658209;-75
2024/01/03 04:17:28;;;;;;;3.80;1.57;;;5.30;99.90;;;;;;4391890;28;657861;-75
2024/01/03 04:20:16;;;;;;;4.97;2.60;;;5.40;99.90;;;;;;4418918;28;657578;-75
2024/01/03 04:23:04;;;;;;;7.23;3.47;;;5.40;99.90;;;;;;4406695;28;658310;-75
2024/01/03 04:25:51;;;;;;;4.17;1.87;;;5.40;99.90;;;;;;4425514;28;656953;-75
2024/01/03 04:28:39;;;;;;;5.67;3.23;;;5.40;99.90;;;;;;4400810;28;657794;-75
2024/01/03 04:31:26;;;;;;;7.63;4.30;;;5.50;99.90;;;;;;4423067;28;657601;-75
2024/01/03 04:34:14;;;;;;;3.43;1.80;;;5.50;99.90;;;;;;4405927;28;658094;-75
2024/01/03 04:37:03;;;;;;;6.63;3.30;;;5.60;99.90;;;;;;4421079;28;657883;-75
2024/01/03 04:39:50;;;;;;;5.10;2.63;;;5.60;99.90;;;;;;4401160;28;657487;-75
2024/01/03 04:42:37;;;;;;;4.30;2.97;;;5.70;99.90;;;;;;4414640;28;657883;-75
2024/01/03 04:45:25;;;;;;;5.30;2.95;;;5.70;99.90;;;;;;4427779;28;657540;-75
2024/01/03 04:48:12;;;;;;;4.30;2.73;;;5.80;99.90;;;;;;4429611;28;657152;-75
2024/01/03 04:50:59;;;;;;;2.40;1.90;;;5.80;99.90;;;;;;4403083;28;657924;-75
2024/01/03 04:53:47;;;;;;;6.77;2.90;;;5.90;99.90;;;;;;4426953;28;658066;-75
2024/01/03 04:56:35;;;;;;;5.30;3.30;;;6.00;99.90;;;;;;4416087;28;658055;-75
2024/01/03 04:59:22;;;;;;;4.93;2.85;;;6.00;99.90;;;;;;4411221;28;657825;-75
2024/01/03 05:02:10;;;;;;;4.73;2.87;;;6.00;99.90;;;;;;4423516;28;659001;-75
2024/01/03 05:04:58;;;;;;;2.63;1.87;;;6.00;99.90;;;;;;4422429;28;657925;-74
2024/01/03 05:07:45;;;;;;;7.07;4.20;;;6.10;99.90;;;;;;4423870;28;658678;-75
2024/01/03 05:10:34;;;;;;;7.13;4.83;;;6.10;99.90;;;;;;4412638;28;657546;-75
2024/01/03 05:13:21;;;;;;;4.67;2.93;;;6.10;99.90;;;;;;4429255;28;657374;-75
2024/01/03 05:16:08;;;;;;;4.53;3.03;;;6.20;99.90;;;;;;4400185;28;657689;-75
2024/01/03 05:18:55;;;;;;;12.53;5.33;;;6.20;99.90;;;;;;4429790;28;658708;-75
2024/01/03 05:21:43;;;;;;;9.63;6.40;;;6.20;99.90;;;;;;4403622;28;658417;-75
2024/01/03 05:24:30;;;;;;;9.17;5.33;;;6.20;99.90;;;;;;4433692;28;658053;-75
2024/01/03 05:27:20;;;;;;;7.53;4.63;;;6.20;99.90;;;;;;4439249;28;658082;-75
2024/01/03 05:30:08;;;;;;;7.90;5.63;;;6.30;99.90;;;;;;4407469;28;658033;-75
2024/01/03 05:32:56;;;;;;;8.60;4.20;;;6.30;99.90;;;;;;4425087;28;657722;-74
2024/01/03 05:35:43;;;;;;;5.07;2.60;;;6.40;99.90;;;;;;4416399;28;658189;-74
2024/01/03 05:38:30;;;;;;;2.67;2.10;;;6.40;99.90;;;;;;4424639;28;657943;-74
2024/01/03 05:41:17;;;;;;;8.23;5.30;;;6.50;99.90;;;;;;4414368;28;657687;-74
2024/01/03 05:44:06;;;;;;;10.17;5.67;;;6.40;99.90;;;;;;4431698;28;657171;-75
2024/01/03 05:46:53;;;;;;;10.80;6.70;;;6.50;99.90;;;;;;4397205;28;658752;-75
2024/01/03 05:49:41;;;;;;;10.63;6.65;;;6.50;99.90;;;;;;4425719;28;659036;-75
2024/01/03 05:52:28;;;;;;;10.60;7.10;;;6.50;99.90;;;;;;4400994;28;658902;-75
2024/01/03 05:55:15;;;;;;;10.57;6.67;;;6.60;99.90;;;;;;4420704;28;659395;-75
2024/01/03 05:58:03;;;;;;;6.87;4.17;;;6.60;99.90;;;;;;4401546;28;658732;-75
2024/01/03 06:00:51;;;;;;;8.10;4.80;;;6.70;99.90;;;;;;4412757;28;657970;-75
2024/01/03 06:03:38;;;;;;;10.07;5.43;;;6.70;99.90;;;;;;4408822;28;657784;-75
2024/01/03 06:06:26;;;;;;;6.90;2.03;;;6.70;99.90;;;;;;4425379;28;658972;-75
2024/01/03 06:09:13;;;;;;;10.50;5.97;;;6.70;99.90;;;;;;4413076;28;657642;-75
2024/01/03 06:12:00;;;;;;;8.77;5.03;;;6.70;99.90;;;;;;4422819;28;659397;-75
2024/01/03 06:14:47;;;;;;;6.03;3.37;;;6.70;99.90;;;;;;4414664;28;658328;-75
2024/01/03 06:17:37;;;;;;;1.80;1.43;;;6.70;99.90;;;;;;4426303;28;658149;-75
2024/01/03 06:20:24;;;;;;;9.23;5.43;;;6.80;99.90;;;;;;4398661;28;658090;-75
2024/01/03 06:23:11;;;;;;;7.23;4.77;;;6.80;99.90;;;;;;4417685;28;657085;-75
2024/01/03 06:25:58;;;;;;;6.23;3.40;;;6.90;99.90;;;;;;4400135;28;658151;-75
2024/01/03 06:28:45;;;;;;;9.03;4.67;;;6.90;99.90;;;;;;4420186;28;658103;-76
2024/01/03 06:31:32;;;;;;;7.40;3.93;;;6.90;99.90;;;;;;4398609;28;657410;-76
2024/01/03 06:34:21;;;;;;;9.43;4.40;;;6.90;99.90;;;;;;4426588;28;658475;-75
2024/01/03 06:37:08;;;;;;;7.67;5.27;;;6.90;99.90;;;;;;4390844;28;657834;-75
2024/01/03 06:39:55;;;;;;;7.93;5.00;;;6.90;99.90;;;;;;4432616;28;657991;-76
2024/01/03 06:42:43;;;;;;;9.03;2.97;;;6.90;99.90;;;;;;4394462;28;657723;-76
2024/01/03 06:45:30;;;;;;;6.57;4.20;;;6.90;99.90;;;;;;4423558;28;658531;-75
2024/01/03 06:48:17;;;;;;;8.30;4.23;;;6.90;99.90;;;;;;4409100;28;658402;-76
2024/01/03 06:51:06;;;;;;;6.43;3.23;;;7.00;99.90;;;;;;4417046;28;658807;-75
2024/01/03 06:53:53;;;;;;;9.53;5.53;;;7.00;99.90;;;;;;4401438;28;658184;-75
2024/01/03 06:56:40;;;;;;;5.30;3.33;;;7.00;99.90;;;;;;4426466;28;658536;-76
2024/01/03 06:59:28;;;;;;;5.87;2.67;;;7.10;99.90;;;;;;4399728;28;657453;-76
2024/01/03 07:02:15;;;;;;;7.40;5.10;;;7.00;99.90;;;;;;4420264;28;658519;-75
2024/01/03 07:05:02;;;;;;;6.63;4.50;;;7.00;99.90;;;;;;4418454;28;657960;-75
2024/01/03 07:07:51;;;;;;;7.00;5.20;;;7.10;99.90;;;;;;4431758;28;658580;-76
2024/01/03 07:10:38;;;;;;;7.10;4.80;;;7.10;99.90;;;;;;4405233;28;657561;-76
2024/01/03 07:13:25;;;;;;;7.00;3.20;;;7.00;99.90;;;;;;4422365;28;658442;-76
2024/01/03 07:16:13;;;;;;;4.77;3.77;;;7.10;99.90;;;;;;4398477;28;657280;-76
2024/01/03 07:19:00;;;;;;;5.27;2.07;;;7.10;99.90;;;;;;4430751;28;658439;-76
2024/01/03 07:21:47;;;;;;;6.63;4.53;;;7.10;99.90;;;;;;4414343;28;657897;-77
2024/01/03 07:24:36;;;;;;;6.90;3.93;;;7.10;99.90;;;;;;4432348;28;657233;-76
2024/01/03 07:27:23;;;;;;;5.65;3.67;;;7.10;99.90;;;;;;4412391;28;657328;-78
2024/01/03 07:30:12;;;;;;;6.53;3.43;;;7.10;99.90;;;;;;4418349;28;657712;-77
2024/01/03 07:32:59;;;;;;;7.33;2.97;;;7.20;99.90;;;;;;4402520;28;658299;-77
2024/01/03 07:35:46;;;;;;;5.27;3.00;;;7.10;99.90;;;;;;4411457;28;663265;-75
2024/01/03 07:38:34;;;;;;;4.80;2.85;;;7.20;99.90;;;;;;4402009;28;658013;-73
2024/01/03 07:41:22;;;;;;;6.30;2.43;;;7.20;99.90;;;;;;4421265;28;657401;-80
2024/01/03 07:44:09;;;;;;;6.00;3.60;;;7.30;99.90;;;;;;4396271;28;657923;-78
2024/01/03 07:46:56;;;;;;;6.90;4.10;;;7.20;99.90;;;;;;4423416;28;657554;-79
2024/01/03 07:49:44;;;;;;;6.07;3.90;;;7.20;99.90;;;;;;4394619;28;657773;-76
2024/01/03 07:52:31;;;;;;;5.40;3.90;;;7.30;99.90;;;;;;4425812;28;657269;-78
2024/01/03 07:55:18;;;;;;;4.50;3.40;;;7.30;99.90;;;;;;4393947;28;657778;-82
2024/01/03 07:58:08;;;;;;;4.40;3.33;;;7.30;99.90;;;;;;4417716;28;658564;-76
2024/01/03 08:00:55;;;;;;;3.67;2.70;;;7.30;99.90;;;;;;4401810;28;657726;-78
2024/01/03 08:03:42;;;;;;;5.18;3.72;;;7.30;99.90;;;;;;4405213;28;657597;-78
2024/01/03 08:06:30;;;;;;;5.83;3.87;;;7.30;99.90;;;;;;4418836;28;658540;-77
2024/01/03 08:09:17;;;;;;;5.20;2.17;;;7.30;99.90;;;;;;4411184;28;658303;-78
2024/01/03 08:12:05;;;;;;;4.70;3.90;;;7.30;99.90;;;;;;4431533;28;658267;-79
2024/01/03 08:14:54;;;;;;;4.87;3.60;;;7.30;99.90;;;;;;4413911;28;658018;-77
2024/01/03 08:17:41;;;;;;;6.17;4.10;;;7.30;99.90;;;;;;4428151;28;657512;-78
2024/01/03 08:20:29;;;;;;;5.23;3.73;;;7.20;99.90;;;;;;4405726;28;657324;-77
2024/01/03 08:23:16;;;;;;;3.47;2.77;;;7.30;99.90;;;;;;4431778;28;657939;-78
2024/01/03 08:26:08;;;;;;;5.40;3.50;;;7.40;99.90;;;;;;4411805;28;657422;-76
2024/01/03 08:28:55;;;;;;;3.90;2.80;;;7.40;99.90;;;;;;4405507;28;658064;-77
2024/01/03 08:31:44;;;;;;;2.43;1.80;;;7.40;99.90;;;;;;4406682;28;657886;-77
2024/01/03 08:34:31;;;;;;;4.67;2.73;;;7.50;99.90;;;;;;4425193;28;657528;-78
2024/01/03 08:37:18;;;;;;;5.60;3.07;;;7.40;99.90;;;;;;4403467;28;657675;-77
2024/01/03 08:40:08;;;;;;;3.37;1.83;;;7.40;99.90;;;;;;4429150;28;658601;-77
2024/01/03 08:42:56;;;;;;;5.63;2.37;;;7.50;99.90;;;;;;4393396;28;658095;-77
2024/01/03 08:45:43;;;;;;;3.23;2.07;;;7.60;99.90;;;;;;4401914;28;657510;-76
2024/01/03 08:48:31;;;;;;;3.63;2.17;;;7.60;99.90;;;;;;4424663;28;658141;-77
2024/01/03 08:51:19;;;;;;;3.67;2.13;;;7.60;99.90;;;;;;4404452;28;657670;-77
2024/01/03 08:54:06;;;;;;;6.17;2.50;;;7.60;99.90;;;;;;4426203;28;658184;-77
2024/01/03 08:56:53;;;;;;;4.77;2.57;;;7.60;99.90;;;;;;4400028;28;657559;-77
2024/01/03 08:59:41;;;;;;;3.10;1.40;;;7.60;99.90;;;;;;4426427;28;658044;-77
2024/01/03 09:02:28;;;;;;;4.40;2.37;;;7.70;99.90;;;;;;4404964;28;657774;-77
2024/01/03 09:05:18;;;;;;;6.20;3.40;;;7.70;99.90;;;;;;4433634;28;657978;-77
2024/01/03 09:08:05;;;;;;;4.97;2.80;;;7.70;99.90;;;;;;4409301;28;657878;-77
2024/01/03 09:10:53;;;;;;;6.70;2.90;;;7.70;99.90;;;;;;4405400;28;658159;-76
2024/01/03 09:13:40;;;;;;;4.83;2.47;;;7.70;99.90;;;;;;4422324;28;659027;-77
2024/01/03 09:16:28;;;;;;;5.13;2.40;;;7.80;99.90;;;;;;4419212;28;657685;-77
2024/01/03 09:19:15;;;;;;;7.33;2.63;;;7.80;99.90;;;;;;4428990;28;657635;-77
2024/01/03 09:22:04;;;;;;;3.47;1.77;;;7.80;99.90;;;;;;4404864;28;658023;-77
2024/01/03 09:24:51;;;;;;;4.77;1.73;;;7.90;99.90;;;;;;4427847;28;656997;-76
2024/01/03 09:27:39;;;;;;;1.63;0.97;;;7.90;99.90;;;;;;4403707;28;658084;-76
2024/01/03 09:30:26;;;;;;;3.43;2.13;;;7.90;99.90;;;;;;4419736;28;658328;-77
2024/01/03 09:33:13;;;;;;;2.50;1.17;;;7.90;99.90;;;;;;4409148;28;657302;-76
2024/01/03 09:36:00;;;;;;;3.20;1.70;;;8.00;99.90;;;;;;4426351;28;657897;-77
2024/01/03 09:38:50;;;;;;;5.83;1.83;;;8.10;99.90;;;;;;4397417;28;657830;-76
2024/01/03 09:41:37;;;;;;;3.83;1.73;;;8.10;99.90;;;;;;4421796;28;657964;-76
2024/01/03 09:44:24;;;;;;;6.17;1.87;;;8.20;99.90;;;;;;4396814;28;658241;-77
2024/01/03 09:47:12;;;;;;;3.60;1.80;;;8.20;99.90;;;;;;4421467;28;657834;-77
2024/01/03 09:49:59;;;;;;;2.40;1.03;;;8.30;99.90;;;;;;4402079;28;658160;-77
2024/01/03 09:52:46;;;;;;;3.10;1.83;;;8.40;99.90;;;;;;4423173;28;657528;-77
2024/01/03 09:55:35;;;;;;;4.43;1.63;;;8.40;99.90;;;;;;4406211;28;657669;-76
2024/01/03 09:58:24;;;;;;;3.40;1.60;;;8.60;99.90;;;;;;4415286;28;657726;-77
2024/01/03 10:01:11;;;;;;;2.90;1.60;;;9.10;99.90;;;;;;4432078;28;657598;-77
2024/01/03 10:03:58;;;;;;;1.87;1.20;;;9.20;99.90;;;;;;4400236;28;657376;-76
2024/01/03 10:06:52;;;;;;;3.38;1.30;;;9.50;99.90;;;;;;4432140;28;658140;-77
2024/01/03 10:09:44;;;;;;;1.80;1.20;;;10.30;99.90;;;;;;4400953;28;657939;-77
2024/01/03 10:12:33;;;;;;;2.63;1.33;;;10.50;99.90;;;;;;4403631;28;658660;-77
2024/01/03 10:15:20;;;;;;;2.10;1.17;;;9.90;99.90;;;;;;4407569;28;659704;-76
2024/01/03 10:18:09;;;;;;;6.23;0.70;;;9.50;99.90;;;;;;4406466;28;657487;-77
2024/01/03 10:20:56;;;;;;;1.80;0.80;;;9.30;99.90;;;;;;4420744;28;658361;-77
2024/01/03 10:23:44;;;;;;;3.50;1.47;;;9.20;99.90;;;;;;4410984;28;657615;-77
2024/01/03 10:26:31;;;;;;;6.60;1.53;;;9.10;99.90;;;;;;4426289;28;657551;-77
2024/01/03 10:29:20;;;;;;;2.27;1.27;;;9.10;99.90;;;;;;4407234;28;658806;-77
2024/01/03 10:32:10;;;;;;;2.58;1.05;;;9.10;99.90;;;;;;4416829;28;657986;-76
2024/01/03 10:35:15;;;;;;;6.40;1.23;;;9.20;99.90;;;;;;4415544;28;658394;-76
2024/01/03 10:38:03;;;;;;;2.60;1.40;;;9.20;99.90;;;;;;4397129;28;657932;-77
2024/01/03 10:40:50;;;;;;;2.90;0.77;;;9.10;99.90;;;;;;4429598;28;657814;-76
2024/01/03 10:43:37;;;;;;;1.47;0.90;;;9.10;99.90;;;;;;4413154;28;657196;-76
2024/01/03 10:46:26;;;;;;;2.60;1.10;;;9.00;99.90;;;;;;4425949;28;658970;-77
2024/01/03 10:49:13;;;;;;;2.80;1.10;;;8.90;99.90;;;;;;4393651;28;657575;-77
2024/01/03 10:52:02;;;;;;;3.10;1.30;;;8.90;99.90;;;;;;4426457;28;657836;-76
2024/01/03 10:54:51;;;;;;;4.60;1.43;;;9.00;99.90;;;;;;4406096;28;658325;-76
2024/01/03 10:57:38;;;;;;;3.37;1.17;;;8.90;99.90;;;;;;4403861;28;657713;-76
2024/01/03 11:00:33;;;;;;;3.20;1.60;;;8.90;99.90;;;;;;4421599;28;658448;-77
2024/01/03 11:03:25;;;;;;;1.83;0.90;;;8.90;99.90;;;;;;4404980;28;657526;-77
2024/01/03 11:06:18;;;;;;;4.57;1.30;;;9.10;99.90;;;;;;4396219;28;657916;-77
2024/01/03 11:09:05;;;;;;;2.47;1.07;;;9.30;99.90;;;;;;4401151;28;658545;-77
2024/01/03 11:12:05;;;;;;;3.20;1.13;;;9.50;99.90;;;;;;4409499;28;657498;-77
2024/01/03 11:14:52;;;;;;;0.88;0.63;;;9.60;99.90;;;;;;4402211;28;657148;-77
2024/01/03 11:17:40;;;;;;;1.90;1.00;;;9.60;99.90;;;;;;4428824;28;657608;-77
2024/01/03 11:20:29;;;;;;;3.20;1.20;;;9.50;99.90;;;;;;4435490;28;658089;-76
2024/01/03 11:23:26;;;;;;;4.10;0.80;;;9.30;99.90;;;;;;4431932;28;657670;-75
2024/01/03 11:26:13;;;;;;;3.77;1.13;;;9.20;99.90;;;;;;4406646;28;657378;-76
2024/01/03 11:29:00;;;;;;;1.10;0.60;;;9.20;99.90;;;;;;4424975;28;658202;-77
2024/01/03 11:31:59;;;;;;;4.63;0.83;;;9.30;99.90;;;;;;4413681;28;658002;-76
2024/01/03 11:34:46;;;;;;;6.80;1.20;;;9.70;99.90;;;;;;4399267;28;658584;-75
2024/01/03 11:37:36;;;;;;;2.63;0.90;;;9.80;99.90;;;;;;4408322;28;657832;-74
2024/01/03 11:40:23;;;;;;;1.67;0.90;;;10.10;99.90;;;;;;4393924;28;657850;-75
2024/01/03 11:43:10;;;;;;;3.40;1.10;;;10.10;99.90;;;;;;4413028;28;658931;-75
2024/01/03 11:46:07;;;;;;;1.30;0.90;;;9.70;99.90;;;;;;4405191;28;659173;-74
2024/01/03 11:49:01;;;;;;;2.33;1.00;;;9.60;99.90;;;;;;4381866;28;657558;-75
2024/01/03 11:51:49;;;;;;;3.53;1.40;;;9.50;99.90;;;;;;4390691;28;657774;-75
2024/01/03 11:54:37;;;;;;;2.53;1.20;;;9.30;99.90;;;;;;4421174;28;657757;-75
2024/01/03 11:57:24;;;;;;;1.70;0.70;;;9.20;99.90;;;;;;4399529;28;658443;-75
2024/01/03 12:00:12;;;;;;;4.07;1.60;;;9.20;99.90;;;;;;4434041;28;658013;-74
2024/01/03 12:03:01;;;;;;;3.03;0.93;;;9.10;99.90;;;;;;4402214;28;658252;-76
2024/01/03 12:05:48;;;;;;;2.20;1.30;;;9.20;99.90;;;;;;4401063;28;657831;-76
2024/01/03 12:08:35;;;;;;;5.73;1.73;;;9.20;99.90;;;;;;4431425;28;658545;-75
2024/01/03 12:11:24;;;;;;;2.20;0.90;;;9.20;99.90;;;;;;4409287;28;657216;-76
2024/01/03 12:14:11;;;;;;;4.47;1.30;;;9.20;99.90;;;;;;4426344;28;657855;-74
2024/01/03 12:16:58;;;;;;;3.13;1.23;;;9.20;99.90;;;;;;4407568;28;657518;-74
2024/01/03 12:19:46;;;;;;;3.03;1.40;;;9.20;99.90;;;;;;4429657;28;658581;-76
2024/01/03 12:22:33;;;;;;;3.77;1.37;;;9.30;99.90;;;;;;4394212;28;657355;-76
2024/01/03 12:25:25;;;;;;;5.03;1.10;;;9.20;99.90;;;;;;4422749;28;658612;-75
2024/01/03 12:28:19;;;;;;;4.63;1.43;;;9.20;99.90;;;;;;4400502;28;657730;-75
2024/01/03 12:31:18;;;;;;;1.47;0.87;;;9.20;99.90;;;;;;4402760;28;658323;-75
2024/01/03 12:34:06;;;;;;;2.40;1.20;;;9.40;99.90;;;;;;4407883;28;657559;-75
2024/01/03 12:36:53;;;;;;;2.27;0.77;;;9.40;99.90;;;;;;4406445;28;658039;-76
2024/01/03 12:39:40;;;;;;;6.33;1.40;;;9.40;99.90;;;;;;4417595;28;657752;-75
2024/01/03 12:42:27;;;;;;;3.03;1.37;;;9.50;99.90;;;;;;4420148;28;657881;-75
2024/01/03 12:45:16;;;;;;;6.17;1.30;;;9.50;99.90;;;;;;4433851;28;657963;-76
2024/01/03 12:48:04;;;;;;;4.73;0.77;;;9.60;99.90;;;;;;4399135;28;657654;-76
2024/01/03 12:50:52;;;;;;;3.97;1.30;;;9.80;99.90;;;;;;4424089;28;657866;-75
2024/01/03 12:53:40;;;;;;;5.20;1.57;;;9.90;99.90;;;;;;4410156;28;657547;-74
2024/01/03 12:56:27;;;;;;;3.40;1.67;;;10.10;99.90;;;;;;4430261;28;657546;-74
2024/01/03 12:59:15;;;;;;;1.50;0.87;;;10.00;99.90;;;;;;4430707;28;659239;-74
2024/01/03 13:02:04;;;;;;;2.30;1.00;;;10.00;99.90;;;;;;4403354;28;658601;-73
2024/01/03 13:04:51;;;;;;;2.97;1.03;;;9.90;99.90;;;;;;4432275;28;658556;-74
2024/01/03 13:07:39;;;;;;;1.97;0.97;;;9.70;99.90;;;;;;4398360;28;658141;-75
2024/01/03 13:10:27;;;;;;;4.13;1.30;;;9.60;99.90;;;;;;4429301;28;658071;-74
2024/01/03 13:13:15;;;;;;;6.20;1.33;;;9.40;99.90;;;;;;4406396;28;657836;-74
2024/01/03 13:16:03;;;;;;;3.00;1.47;;;9.30;99.90;;;;;;4416162;28;657947;-74
2024/01/03 13:18:51;;;;;;;5.30;1.80;;;9.30;99.90;;;;;;4429043;28;658217;-74
2024/01/03 13:21:38;;;;;;;3.83;1.35;;;9.20;99.90;;;;;;4405323;28;658556;-74
2024/01/03 13:24:26;;;;;;;5.47;1.90;;;9.10;99.90;;;;;;4419995;28;657129;-74
2024/01/03 13:27:13;;;;;;;3.40;1.40;;;9.00;99.90;;;;;;4421693;28;658480;-74
2024/01/03 13:30:01;;;;;;;3.37;1.53;;;8.90;99.90;;;;;;4426228;28;658400;-75
2024/01/03 13:32:48;;;;;;;6.80;2.10;;;8.80;99.90;;;;;;4401541;28;657985;-76
2024/01/03 13:35:37;;;;;;;4.90;1.60;;;8.70;99.90;;;;;;4431971;28;658008;-75
2024/01/03 13:38:24;;;;;;;4.90;1.43;;;8.60;99.90;;;;;;4396079;28;657576;-75
2024/01/03 13:41:11;;;;;;;3.30;1.73;;;8.40;99.90;;;;;;4425888;28;658014;-74
2024/01/03 13:43:59;;;;;;;4.47;1.87;;;8.30;99.90;;;;;;4394177;28;657374;-74
2024/01/03 13:46:47;;;;;;;7.53;2.00;;;8.30;99.90;;;;;;4430419;28;657012;-74
2024/01/03 13:49:34;;;;;;;8.27;2.53;;;8.30;99.90;;;;;;4398503;28;658760;-75
2024/01/03 13:52:23;;;;;;;3.42;1.95;;;8.30;99.90;;;;;;4425879;28;657140;-75
2024/01/03 13:55:10;;;;;;;5.70;2.30;;;8.20;99.90;;;;;;4399378;28;657936;-75
2024/01/03 13:57:57;;;;;;;7.03;2.70;;;8.20;99.90;;;;;;4419271;28;657511;-75
2024/01/03 14:00:45;;;;;;;3.53;1.67;;;8.10;99.90;;;;;;4431533;28;657961;-75
2024/01/03 14:03:32;;;;;;;7.07;2.50;;;8.10;99.90;;;;;;4407178;28;657615;-75
2024/01/03 14:06:21;;;;;;;6.47;2.63;;;8.10;99.90;;;;;;4419885;28;658562;-75
2024/01/03 14:09:09;;;;;;;4.87;2.47;;;8.00;99.90;;;;;;4409177;28;657748;-75
2024/01/03 14:11:57;;;;;;;8.73;2.50;;;8.00;99.90;;;;;;4434035;28;657144;-75
2024/01/03 14:14:44;;;;;;;4.83;2.10;;;8.10;99.90;;;;;;4401887;28;658027;-75
2024/01/03 14:17:32;;;;;;;6.17;2.70;;;8.10;99.90;;;;;;4432489;28;657868;-75
2024/01/03 14:20:19;;;;;;;9.53;1.87;;;8.10;99.90;;;;;;4404038;28;657879;-75
2024/01/03 14:23:06;;;;;;;8.93;2.83;;;8.10;99.90;;;;;;4411326;28;657711;-75
2024/01/03 14:25:56;;;;;;;3.17;1.47;;;8.10;99.90;;;;;;4406395;28;657920;-75
2024/01/03 14:28:43;;;;;;;7.37;2.93;;;8.10;99.90;;;;;;4401793;28;658281;-75
2024/01/03 14:31:30;;;;;;;5.30;2.40;;;8.10;99.90;;;;;;4437121;28;657599;-75